Tiempo atmosférico en la estación meteorológica de Daroca, Zaragoza (779 m.)

Fecha
DESCASC
Temp. máxima en grados centígrados (hora)
DESCASC
Temp. mínima en grados centígrados (hora)
DESCASC
Temp. media en grados centígrados
DESCASC
Racha de viento máxima en m/sg (hora)
DESCASC
Velocidad máxima media en intervalos de 10 minutos(hora)
DESCASC
Precipitaciones diarias en mm
DESCASC
Precipitaciones de 00:00 a 06:00 en mm
DESCASC
Precipitaciones de 06:00 a 12:00 en mm
DESCASC
Precipitaciones de 12:00 a 18:00 en mm
DESCASC
Precipitaciones de 18:00 a 24:00 en mm
DESCASC
17-08-2017 36.2 (18:20) 14.3 (07:30) 25.3 7.78 (18:40) 3.61 (18:50) 0 0 0 0 0
16-08-2017 32.1 (14:40) 16.8 (07:30) 24.4 8.61 (20:50) 4.17 (15:10) 0 0 0 0 0
15-08-2017 34.5 (14:30) 18 (00:00) 26.3 10.28 (15:50) 5.28 (13:40) 0 0 0 0 0
14-08-2017 35.2 (16:00) 15 (07:30) 25.1 9.72 (18:10) 4.44 (18:40) 0 0 0 0 0
13-08-2017 31.5 (15:30) 11 (00:00) 21.3 11.94 (15:50) 3.89 (15:40) 0 0 0 0 0
12-08-2017 29.7 (18:30) 8 (00:00) 18.9 7.5 (17:10) 3.89 (16:00) 0 0 0 0 0
11-08-2017 26.8 (18:30) 8.4 (00:00) 17.6 8.89 (20:00) 4.17 (20:00) 0 0 0 0 0
10-08-2017 22.3 (18:30) 6.3 (00:00) 14.3 11.39 (14:40) 4.72 (18:40) 0 0 0 0 0
09-08-2017 18.7 (14:10) 12.1 (00:00) 15.4 10.56 (18:30) 5.56 (15:30) 0 0 0 0 0
08-08-2017 28.7 (00:10) 15.9 (00:00) 22.3 10.56 (19:40) 4.72 (19:40) 0 0 0 0 0
07-08-2017 36.1 (16:10) 18.3 (00:00) 27.2 13.89 (17:00) 7.22 (17:10) 0 0 0 0 0
06-08-2017 27.9 (18:30) 15.1 (00:00) 21.5 11.11 (18:40) 5.28 (19:20) 0 0 0 0 0
05-08-2017 31.4 (14:30) 18.8 (00:00) 25.1 9.17 (14:10) 4.72 (14:40) 0 0 0 0 0
04-08-2017 37.1 (17:10) 17.1 (00:00) 27.1 7.78 (20:40) 4.17 (19:30) 0 0 0 0 0
03-08-2017 38.8 (18:40) 17 (00:00) 27.9 5.83 (17:10) 2.5 (17:10) 0 0 0 0 0
02-08-2017 32.1 (18:40) 20.3 (00:00) 26.2 10.28 (11:20) 3.61 (11:20) 0.8 0 0.8 0 0
01-08-2017 32.9 (15:20) 17.3 (00:00) 25.1 10.28 (15:40) 5 (16:40) 0 0 0 0 0
31-07-2017 37.5 (18:30) 17.4 (00:00) 27.4 10.83 (18:20) 5 (19:20) 0 0 0 0 0
30-07-2017 36.5 (16:40) 16 (00:00) 26.3 13.33 (17:30) 6.67 (15:20) 0 0 0 0 0
29-07-2017 37.4 (18:10) 15.9 (00:00) 26.7 9.72 (20:10) 4.72 (15:10) 0 0 0 0 0
28-07-2017 35.5 (15:50) 17.4 (00:00) 26.4 7.78 (16:40) 3.33 (17:30) 0 0 0 0 0
27-07-2017 37.8 (18:40) 13.6 (00:00) 25.7 8.33 (14:00) 3.61 (19:50) 0 0 0 0 0
26-07-2017 31 (17:40) 9.7 (00:00) 20.3 9.17 (14:00) 4.17 (19:10) 0 0 0 0 0
25-07-2017 25.5 (17:40) 11.4 (00:00) 18.4 9.72 (19:30) 4.44 (19:30) 0 0 0 0 0
24-07-2017 27.8 (17:40) 13.8 (00:00) 20.8 11.39 (20:40) 5.28 (19:40) 0 0 0 0 0
23-07-2017 29.8 (18:50) 14.8 (00:00) 22.3 8.61 (14:40) 4.44 (15:40) 0 0 0 0 0
22-07-2017 34.7 (18:40) 15.4 (00:00) 25.1 9.17 (13:30) 4.17 (14:00) 0 0 0 0 0

Gráficas

Temp. máximas Temp. mínimas Temp. medias Precipitaciones Rachas de viento máximas Velocidades máximas media en intervalos de 10 minutos

Datos horarios

Fecha y hora oficial Temperatura (ºC) Velocidad del viento (km/h) Dirección del viento Racha (km/h) Dirección de racha Precipitación (mm) Presión (hPa) Tendencia (hPa) Humedad (%)
2017-08-20 23:00:00 21.1 0 Calma 8 Sudeste 0 -- -- 31
2017-08-20 22:00:00 23 0 Calma 17 Nordeste 0 -- -- 26
2017-08-20 21:00:00 25 7 Nordeste 27 Norte 0 -- -- 22
2017-08-20 20:00:00 27.8 12 Nordeste 25 Este 0 -- -- 18
2017-08-20 19:00:00 29.8 11 Nordeste 27 Nordeste 0 -- -- 15
2017-08-20 18:00:00 30.1 14 Nordeste 30 Nordeste 0 -- -- 16
2017-08-20 17:00:00 30 13 Nordeste 27 Norte 0 -- -- 18
2017-08-20 16:00:00 30.2 12 Nordeste 27 Nordeste 0 -- -- 16
2017-08-20 15:00:00 30.3 5 Sur 14 Sudoeste 0 -- -- 20
2017-08-20 14:00:00 28.4 4 Oeste 15 Este 0 -- -- 16
2017-08-20 13:00:00 27 7 Este 18 Este 0 -- -- 16
2017-08-20 12:00:00 24.9 8 Noroeste 21 Norte 0 -- -- 13
2017-08-20 11:00:00 23 6 Este 16 Nordeste 0 -- -- 21
2017-08-20 10:00:00 21 3 Nordeste 8 Este 0 -- -- 29
2017-08-20 09:00:00 17.3 0 Calma 4 Sudeste 0 -- -- 52
2017-08-20 08:00:00 16.3 0 Calma 5 Nordeste 0 -- -- 55
2017-08-20 07:00:00 15.8 0 Calma 4 Este 0 -- -- 55
2017-08-20 06:00:00 15.3 0 Calma 12 Nordeste 0 -- -- 56
2017-08-20 05:00:00 15.1 6 Nordeste 12 Nordeste 0 -- -- 57
2017-08-20 04:00:00 15.8 3 Este 12 Nordeste 0 -- -- 56
2017-08-20 03:00:00 15.9 6 Nordeste 8 Nordeste 0 -- -- 59
2017-08-20 02:00:00 17 0 Calma 13 Nordeste 0 -- -- 57
2017-08-20 01:00:00 17.5 2 Este 17 Nordeste 0 -- -- 56
2017-08-20 00:00:00 18.6 7 Nordeste 23 Nordeste 0 -- -- 53
2017-08-19 23:00:00 20.6 10 Nordeste 29 Nordeste 0 -- -- 46
2017-08-19 22:00:00 22.4 10 Nordeste 25 Nordeste 0 -- -- 41
2017-08-19 21:00:00 24.1 9 Nordeste 27 Este 0 -- -- 38
2017-08-19 20:00:00 26.1 11 Nordeste 26 Este 0 -- -- 35
2017-08-19 19:00:00 27.8 12 Nordeste 28 Nordeste 0 -- -- 33
2017-08-19 18:00:00 28 11 Nordeste 28 Nordeste 0 -- -- 33
2017-08-19 17:00:00 28.4 12 Nordeste 26 Norte 0 -- -- 31
2017-08-19 16:00:00 27.5 11 Nordeste 30 Este 0 -- -- 33
2017-08-19 15:00:00 27 10 Nordeste 27 Nordeste 0 -- -- 35
2017-08-19 14:00:00 26.5 9 Nordeste 24 Nordeste 0 -- -- 37
2017-08-19 13:00:00 24.9 10 Nordeste 24 Nordeste 0 -- -- 40
2017-08-19 12:00:00 23.6 12 Nordeste 24 Nordeste 0 -- -- 45
2017-08-19 11:00:00 22.9 3 Este 13 Este 0 -- -- 46
2017-08-19 10:00:00 20.4 3 Este 11 Nordeste 0 -- -- 53
2017-08-19 09:00:00 17.2 2 Nordeste 6 Nordeste 0 -- -- 66
2017-08-19 08:00:00 14.9 0 Calma 6 Nordeste 0 -- -- 74
2017-08-19 07:00:00 15.3 2 Este 7 Norte 0 -- -- 73
2017-08-19 06:00:00 16.7 0 Calma 5 Nordeste 0 -- -- 69
2017-08-19 05:00:00 17.5 5 Norte 12 Norte 0 -- -- 66
2017-08-19 04:00:00 18.3 4 Nordeste 9 Nordeste 0 -- -- 61
2017-08-19 03:00:00 18.8 3 Sudeste 9 Sudeste 0 -- -- 64
2017-08-19 02:00:00 19.1 5 Norte 12 Nordeste 0 -- -- 64
2017-08-19 01:00:00 18.8 0 Calma 10 Nordeste 0 -- -- 69
2017-08-19 00:00:00 19.4 2 Sudeste 14 Nordeste 0 -- -- 68
2017-08-18 23:00:00 20.1 9 Nordeste 20 Nordeste 0 -- -- 66
2017-08-18 22:00:00 21 9 Nordeste 26 Norte 0 -- -- 63
2017-08-18 21:00:00 22.9 9 Nordeste 33 Norte 0 -- -- 55
2017-08-18 20:00:00 25.8 15 Nordeste 39 Nordeste 0 -- -- 47
2017-08-18 19:00:00 27.7 13 Nordeste 38 Este 0 -- -- 44
2017-08-18 18:00:00 29.2 17 Nordeste 38 Norte 0 -- -- 38
2017-08-18 17:00:00 30.6 17 Nordeste 36 Nordeste 0 -- -- 37
2017-08-18 16:00:00 31.2 19 Nordeste 40 Nordeste 0 -- -- 37
2017-08-18 15:00:00 32.2 18 Nordeste 35 Nordeste 0 -- -- 36
2017-08-18 14:00:00 34.3 4 Sudeste 12 Sudeste 0 -- -- 28
2017-08-18 13:00:00 32.2 3 Sudoeste 16 Sur 0 -- -- 33
2017-08-18 12:00:00 30.5 7 Sudoeste 13 Norte 0 -- -- 37
2017-08-18 11:00:00 28 6 Sudoeste 12 Sudoeste 0 -- -- 42
2017-08-18 10:00:00 26.1 3 Norte 8 Sudeste 0 -- -- 51
2017-08-18 09:00:00 21.7 0 Calma 7 Este 0 -- -- 67
2017-08-18 08:00:00 19.3 3 Este 9 Nordeste 0 -- -- 71
2017-08-18 07:00:00 19.9 3 Este 8 Este 0 -- -- 68
2017-08-18 06:00:00 21.2 0 Calma 8 Norte 0 -- -- 65
2017-08-18 05:00:00 21.7 0 Calma 5 Sur 0 -- -- 61
2017-08-18 04:00:00 22.9 0 Calma 8 Nordeste 0 -- -- 56
2017-08-18 03:00:00 23.6 0 Calma 8 Norte 0 -- -- 53
2017-08-18 02:00:00 22.7 4 Nordeste 7 Norte 0 -- -- 47
2017-08-18 01:00:00 23.7 0 Calma 6 Este 0 -- -- 41
2017-08-18 00:00:00 25.7 4 Este 10 Este 0 -- -- 36
2017-08-17 23:00:00 27.3 0 Calma 11 Sudeste 0 -- -- 33
2017-08-17 22:00:00 28.4 3 Nordeste 17 Nordeste 0 -- -- 29
2017-08-17 21:00:00 30.2 7 Nordeste 22 Este 0 -- -- 26
2017-08-17 20:00:00 32.4 11 Nordeste 27 Este 0 -- -- 22
2017-08-17 19:00:00 34.2 13 Nordeste 28 Este 0 -- -- 19
2017-08-17 18:00:00 34.7 12 Nordeste 27 Nordeste 0 -- -- 20
2017-08-17 17:00:00 35.1 10 Este 27 Este 0 -- -- 19
2017-08-17 16:00:00 34.6 9 Nordeste 25 Norte 0 -- -- 19
2017-08-17 15:00:00 34.5 5 Este 21 Norte 0 -- -- 20
2017-08-17 14:00:00 32.6 6 Nordeste 17 Nordeste 0 -- -- 24
2017-08-17 13:00:00 31.4 3 Sudeste 12 Norte 0 -- -- 29
2017-08-17 12:00:00 29.8 4 Norte 10 Nordeste 0 -- -- 26
2017-08-17 11:00:00 26.7 3 Nordeste 10 Nordeste 0 -- -- 26
2017-08-17 10:00:00 22 3 Oeste 5 Sudoeste 0 -- -- 32
2017-08-17 09:00:00 17 0 Calma 4 Sudeste 0 -- -- 43
2017-08-17 08:00:00 14.4 0 Calma 5 Nordeste 0 -- -- 49
2017-08-17 07:00:00 14.5 4 Nordeste 9 Nordeste 0 -- -- 50
2017-08-17 06:00:00 15.1 0 Calma 8 Nordeste 0 -- -- 52
2017-08-17 05:00:00 15.9 3 Este 8 Nordeste 0 -- -- 51
2017-08-17 04:00:00 16.9 3 Este 6 Nordeste 0 -- -- 50
2017-08-17 03:00:00 18 2 Este 6 Nordeste 0 -- -- 49
2017-08-17 02:00:00 19.4 0 Calma 5 Norte 0 -- -- 47
2017-08-17 01:00:00 20.9 0 Calma 7 Norte 0 -- -- 45
2017-08-17 00:00:00 22.1 0 Calma 15 Este 0 -- -- 47
2017-08-16 23:00:00 23.4 5 Nordeste 15 Nordeste 0 -- -- 50
2017-08-16 22:00:00 25.4 3 Oeste 20 Nordeste 0 -- -- 42
2017-08-16 21:00:00 26.6 12 Nordeste 31 Nordeste 0 -- -- 40
2017-08-16 20:00:00 28.7 13 Nordeste 30 Nordeste 0 -- -- 35
2017-08-16 19:00:00 30.6 12 Nordeste 29 Nordeste 0 -- -- 34
2017-08-16 18:00:00 31 13 Nordeste 26 Este 0 -- -- 31
2017-08-16 17:00:00 31.2 11 Nordeste 28 Norte 0 -- -- 31
2017-08-16 16:00:00 30.8 12 Nordeste 30 Este 0 -- -- 35
2017-08-16 15:00:00 31.9 12 Nordeste 28 Nordeste 0 -- -- 34
2017-08-16 14:00:00 30.9 7 Nordeste 22 Nordeste 0 -- -- 30
2017-08-16 13:00:00 28.7 6 Norte 24 Noroeste 0 -- -- 39
2017-08-16 12:00:00 26.4 3 Sudoeste 14 Oeste 0 -- -- 48
2017-08-16 11:00:00 22.9 2 Oeste 10 Sudoeste 0 -- -- 59
2017-08-16 10:00:00 20.3 3 Oeste 8 Sudoeste 0 -- -- 68
2017-08-16 09:00:00 17.9 3 Oeste 5 Noroeste 0 -- -- 75
2017-08-16 08:00:00 16.9 0 Calma 6 Norte 0 -- -- 78
2017-08-16 07:00:00 17.2 0 Calma 4 Nordeste 0 -- -- 77
2017-08-16 06:00:00 17.6 0 Calma 4 Nordeste 0 -- -- 76
2017-08-16 05:00:00 18.4 2 Nordeste 8 Norte 0 -- -- 73
2017-08-16 04:00:00 19 3 Este 14 Este 0 -- -- 71
2017-08-16 03:00:00 19.6 6 Nordeste 16 Nordeste 0 -- -- 68
2017-08-16 02:00:00 20.8 7 Nordeste 30 Nordeste 0 -- -- 64
2017-08-16 01:00:00 22.4 7 Este 20 Este 0 -- -- 61
2017-08-16 00:00:00 23.2 4 Este 9 Norte 0 -- -- 54
2017-08-15 23:00:00 24.5 4 Nordeste 9 Sudeste 0 -- -- 50
2017-08-15 22:00:00 26.2 5 Sudeste 10 Sur 0 -- -- 44
2017-08-15 21:00:00 28.3 4 Sur 18 Este 0 -- -- 39
2017-08-15 20:00:00 30.4 9 Nordeste 19 Este 0 -- -- 33
2017-08-15 19:00:00 31.2 10 Este 25 Este 0 -- -- 29
2017-08-15 18:00:00 31.9 14 Nordeste 29 Este 0 -- -- 30
2017-08-15 17:00:00 31.7 10 Este 30 Este 0 -- -- 30
2017-08-15 16:00:00 32.1 13 Este 37 Norte 0 -- -- 28
2017-08-15 15:00:00 31.7 19 Nordeste 36 Nordeste 0 -- -- 30
2017-08-15 14:00:00 33.4 11 Oeste 33 Sudoeste 0 -- -- 26
2017-08-15 13:00:00 32.8 8 Sudoeste 16 Sudoeste 0 -- -- 26
2017-08-15 12:00:00 30.2 7 Oeste 17 Sudoeste 0 -- -- 26
2017-08-15 11:00:00 28.3 5 Este 14 Sudeste 0 -- -- 25
2017-08-15 10:00:00 25.2 3 Este 13 Nordeste 0 -- -- 29
2017-08-15 09:00:00 21.9 3 Oeste 15 Sur 0 -- -- 35
2017-08-15 08:00:00 20.1 2 Nordeste 11 Noroeste 0 -- -- 44
2017-08-15 07:00:00 18.2 0 Calma 8 Nordeste 0 -- -- 52
2017-08-15 06:00:00 18.4 2 Este 8 Sudeste 0 -- -- 52
2017-08-15 05:00:00 19.3 2 Este 7 Este 0 -- -- 50
2017-08-15 04:00:00 21.5 0 Calma 10 Sudoeste 0 -- -- 45
2017-08-15 03:00:00 22.9 6 Sur 18 Sudeste 0 -- -- 42
2017-08-15 02:00:00 23.3 5 Este 22 Sur 0 -- -- 40
2017-08-15 01:00:00 24 4 Oeste 13 Noroeste 0 -- -- 38
2017-08-15 00:00:00 24.9 5 Oeste 24 Sur 0 -- -- 38
2017-08-14 23:00:00 26.3 6 Sudeste 25 Sur 0 -- -- 34
2017-08-14 22:00:00 28.3 7 Este 22 Sudeste 0 -- -- 31
2017-08-14 21:00:00 29.5 6 Nordeste 25 Este 0 -- -- 26
2017-08-14 20:00:00 31 10 Este 34 Nordeste 0 -- -- 27
2017-08-14 19:00:00 31.6 15 Este 35 Sudeste 0 -- -- 23
2017-08-14 18:00:00 33.2 13 Nordeste 34 Este 0 -- -- 19
2017-08-14 17:00:00 34.9 4 Noroeste 15 Sudoeste 0 -- -- 16
2017-08-14 16:00:00 35.2 6 Este 22 Nordeste 0 -- -- 15
2017-08-14 15:00:00 34 5 Norte 22 Sur 0 -- -- 16
2017-08-14 14:00:00 33.1 5 Este 22 Sudeste 0 -- -- 18
2017-08-14 13:00:00 31.5 4 Sur 17 Sudoeste 0 -- -- 21
2017-08-14 12:00:00 29.7 3 Nordeste 13 Este 0 -- -- 25
2017-08-14 11:00:00 26.6 4 Sudeste 13 Sur 0 -- -- 32
2017-08-14 10:00:00 23.5 3 Norte 10 Este 0 -- -- 40
2017-08-14 09:00:00 18.7 2 Norte 7 Este 0 -- -- 54
2017-08-14 08:00:00 15.1 3 Nordeste 9 Nordeste 0 -- -- 65
2017-08-14 07:00:00 15.3 0 Calma 6 Nordeste 0 -- -- 64
2017-08-14 06:00:00 16.4 2 Este 9 Este 0 -- -- 61
2017-08-14 05:00:00 18.4 2 Este 8 Norte 0 -- -- 57
2017-08-14 04:00:00 20.8 3 Noroeste 11 Oeste 0 -- -- 51
2017-08-14 03:00:00 21.4 4 Nordeste 17 Sudeste 0 -- -- 51
2017-08-14 02:00:00 21.9 5 Norte 20 Sur 0 -- -- 54
2017-08-14 01:00:00 22.8 4 Nordeste 19 Sudeste 0 -- -- 53
2017-08-14 00:00:00 23.9 6 Sur 21 Sudeste 0 -- -- 50
2017-08-13 23:00:00 24.5 2 Este 9 Sudeste 0 -- -- 49
2017-08-13 22:00:00 25.8 3 Este 21 Este 0 -- -- 40
2017-08-13 21:00:00 27.4 10 Este 33 Este 0 -- -- 28
2017-08-13 20:00:00 29.2 10 Nordeste 31 Nordeste 0 -- -- 26
2017-08-13 19:00:00 30.3 13 Nordeste 28 Este 0 -- -- 26
2017-08-13 18:00:00 30.9 12 Nordeste 34 Nordeste 0 -- -- 25
2017-08-13 17:00:00 31.4 11 Este 31 Este 0 -- -- 24
2017-08-13 16:00:00 31.2 12 Nordeste 43 Norte 0 -- -- 23
2017-08-13 15:00:00 30.7 9 Nordeste 30 Nordeste 0 -- -- 25
2017-08-13 14:00:00 30.1 9 Nordeste 21 Nordeste 0 -- -- 26
2017-08-13 13:00:00 28.4 5 Oeste 14 Oeste 0 -- -- 31
2017-08-13 12:00:00 26.8 6 Nordeste 17 Nordeste 0 -- -- 36
2017-08-13 11:00:00 24.3 3 Sur 14 Este 0 -- -- 39
2017-08-13 10:00:00 19.7 0 Calma 4 Noroeste 0 -- -- 42
2017-08-13 09:00:00 13.8 0 Calma 4 Oeste 0 -- -- 54
2017-08-13 08:00:00 11.2 0 Calma 5 Este 0 -- -- 62
2017-08-13 07:00:00 11.4 0 Calma 10 Norte 0 -- -- 62
2017-08-13 06:00:00 11.7 0 Calma 8 Nordeste 0 -- -- 60
2017-08-13 05:00:00 12.6 0 Calma 6 Este 0 -- -- 57
2017-08-13 04:00:00 13.4 3 Nordeste 8 Nordeste 0 -- -- 54
2017-08-13 03:00:00 14.8 0 Calma 5 Este 0 -- -- 48
2017-08-13 02:00:00 15.9 0 Calma 8 Nordeste 0 -- -- 43
2017-08-13 01:00:00 16.3 3 Nordeste 7 Nordeste 0 -- -- 38
2017-08-13 00:00:00 17.6 3 Este 7 Este 0 -- -- 34
2017-08-12 23:00:00 19.9 3 Nordeste 7 Nordeste 0 -- -- 31
2017-08-12 22:00:00 22.4 4 Este 15 Nordeste 0 -- -- 26
2017-08-12 21:00:00 24.7 7 Nordeste 23 Nordeste 0 -- -- 23
2017-08-12 20:00:00 26.8 12 Nordeste 23 Nordeste 0 -- -- 20
2017-08-12 19:00:00 28.3 10 Nordeste 25 Norte 0 -- -- 20
2017-08-12 18:00:00 28.6 9 Nordeste 27 Norte 0 -- -- 20
2017-08-12 17:00:00 28.2 9 Este 27 Nordeste 0 -- -- 22
2017-08-12 16:00:00 28.7 14 Nordeste 26 Nordeste 0 -- -- 23
2017-08-12 15:00:00 28.2 6 Nordeste 24 Noroeste 0 -- -- 21
2017-08-12 14:00:00 26.9 7 Oeste 20 Sudoeste 0 -- -- 21
2017-08-12 13:00:00 25.3 9 Oeste 15 Sudoeste 0 -- -- 20
2017-08-12 12:00:00 22.1 5 Oeste 12 Oeste 0 -- -- 25
2017-08-12 11:00:00 19.6 5 Oeste 11 Sudoeste 0 -- -- 29
2017-08-12 10:00:00 16.1 4 Oeste 10 Oeste 0 -- -- 46
2017-08-12 09:00:00 11.3 2 Oeste 5 Oeste 0 -- -- 64
2017-08-12 08:00:00 8.1 2 Sudeste 7 Nordeste 0 -- -- 74
2017-08-12 07:00:00 8.3 0 Calma 5 Nordeste 0 -- -- 73
2017-08-12 06:00:00 8.8 0 Calma 6 Norte 0 -- -- 72
2017-08-12 05:00:00 9.2 0 Calma 9 Nordeste 0 -- -- 70
2017-08-12 04:00:00 10.1 2 Este 6 Norte 0 -- -- 66
2017-08-12 03:00:00 11 2 Nordeste 9 Nordeste 0 -- -- 65
2017-08-12 02:00:00 12.4 0 Calma 5 Este 0 -- -- 61
2017-08-12 01:00:00 13.5 2 Nordeste 9 Nordeste 0 -- -- 57
2017-08-12 00:00:00 15 0 Calma 8 Nordeste 0 -- -- 53
2017-08-11 23:00:00 16.9 0 Calma 8 Norte 0 -- -- 47
2017-08-11 22:00:00 18.1 4 Norte 19 Nordeste 0 -- -- 43
2017-08-11 21:00:00 19.9 8 Nordeste 30 Norte 0 -- -- 38
2017-08-11 20:00:00 21.9 15 Nordeste 32 Nordeste 0 -- -- 32
2017-08-11 19:00:00 24.4 13 Nordeste 28 Nordeste 0 -- -- 28
2017-08-11 18:00:00 25.6 8 Nordeste 24 Norte 0 -- -- 25
2017-08-11 17:00:00 25.9 8 Norte 17 Noroeste 0 -- -- 21
2017-08-11 16:00:00 25.1 5 Norte 24 Norte 0 -- -- 19
2017-08-11 15:00:00 23.5 7 Noroeste 23 Nordeste 0 -- -- 22
2017-08-11 14:00:00 22.3 9 Nordeste 18 Nordeste 0 -- -- 25
2017-08-11 13:00:00 20.6 5 Este 19 Oeste 0 -- -- 29
2017-08-11 12:00:00 17.9 6 Oeste 14 Sudoeste 0 -- -- 42
2017-08-11 11:00:00 16.1 3 Sudoeste 12 Sudoeste 0 -- -- 50
2017-08-11 10:00:00 13.7 0 Calma 10 Sudoeste 0 -- -- 57
2017-08-11 09:00:00 11.1 2 Oeste 10 Oeste 0 -- -- 60
2017-08-11 08:00:00 9.1 2 Noroeste 12 Este 0 -- -- 69
2017-08-11 07:00:00 9 0 Calma 9 Oeste 0 -- -- 70
2017-08-11 06:00:00 8.7 0 Calma 5 Este 0 -- -- 68
2017-08-11 05:00:00 9.8 4 Este 8 Este 0 -- -- 67
2017-08-11 04:00:00 10.8 0 Calma 5 Nordeste 0 -- -- 69
2017-08-11 03:00:00 11.4 3 Nordeste 8 Norte 0 -- -- 68
2017-08-11 02:00:00 11.7 0 Calma 8 Oeste 0 -- -- 70
2017-08-11 01:00:00 12.7 4 Noroeste 13 Nordeste 0 -- -- 67
2017-08-11 00:00:00 13.5 6 Nordeste 18 Nordeste 0 -- -- 67
2017-08-10 23:00:00 14.2 10 Nordeste 26 Nordeste 0 -- -- 65
2017-08-10 22:00:00 15.5 11 Nordeste 27 Nordeste 0 -- -- 59
2017-08-10 21:00:00 17.1 10 Nordeste 31 Nordeste 0 -- -- 54
2017-08-10 20:00:00 19.7 13 Nordeste 32 Este 0 -- -- 44
2017-08-10 19:00:00 21.4 13 Nordeste 27 Nordeste 0 -- -- 39
2017-08-10 18:00:00 21.2 14 Nordeste 33 Norte 0 -- -- 40
2017-08-10 17:00:00 21.8 11 Norte 28 Nordeste 0 -- -- 37
2017-08-10 16:00:00 20.9 11 Norte 29 Nordeste 0 -- -- 39
2017-08-10 15:00:00 21.3 11 Norte 41 Nordeste 0 -- -- 38
2017-08-10 14:00:00 20.3 13 Norte 31 Nordeste 0 -- -- 40
2017-08-10 13:00:00 18.9 10 Noroeste 29 Nordeste 0 -- -- 42
2017-08-10 12:00:00 17.6 6 Noroeste 29 Noroeste 0 -- -- 44
2017-08-10 11:00:00 15.9 9 Noroeste 27 Oeste 0 -- -- 50
2017-08-10 10:00:00 12.7 6 Sudoeste 10 Sudoeste 0 -- -- 61
2017-08-10 09:00:00 9.4 4 Oeste 8 Noroeste 0 -- -- 74
2017-08-10 08:00:00 6.6 2 Este 5 Este 0 -- -- 80
2017-08-10 07:00:00 6.5 0 Calma 6 Nordeste 0 -- -- 80
2017-08-10 06:00:00 6.6 2 Este 7 Nordeste 0 -- -- 79
2017-08-10 05:00:00 7.1 3 Nordeste 7 Nordeste 0 -- -- 78
2017-08-10 04:00:00 8.6 0 Calma 7 Este 0 -- -- 73
2017-08-10 03:00:00 9.6 0 Calma 8 Norte 0 -- -- 71
2017-08-10 02:00:00 11.2 5 Norte 13 Oeste 0 -- -- 66
2017-08-10 01:00:00 12.2 7 Norte 28 Norte 0 -- -- 62
2017-08-10 00:00:00 12.8 17 Nordeste 33 Nordeste 0 -- -- 60
2017-08-09 23:00:00 13.9 14 Nordeste 33 Nordeste 0 -- -- 54
2017-08-09 22:00:00 14.5 10 Norte 28 Nordeste 0 -- -- 54
2017-08-09 21:00:00 14.2 5 Nordeste 24 Nordeste 0 -- -- 62
2017-08-09 20:00:00 14.5 9 Norte 31 Nordeste 0 -- -- 60
2017-08-09 19:00:00 14.7 12 Nordeste 38 Nordeste 0 -- -- 60
2017-08-09 18:00:00 16.1 15 Nordeste 35 Nordeste 0 -- -- 55
2017-08-09 17:00:00 16.7 13 Nordeste 32 Nordeste 0 -- -- 53
2017-08-09 16:00:00 17.4 13 Nordeste 37 Nordeste 0 -- -- 52
2017-08-09 15:00:00 18.1 16 Nordeste 31 Nordeste 0 -- -- 49
2017-08-09 14:00:00 18.4 13 Nordeste 27 Nordeste 0 -- -- 47
2017-08-09 13:00:00 17.8 14 Nordeste 31 Nordeste 0 -- -- 51
2017-08-09 12:00:00 16.1 11 Nordeste 26 Este 0 -- -- 58
2017-08-09 11:00:00 15.5 9 Nordeste 23 Este 0 -- -- 60
2017-08-09 10:00:00 15.2 10 Nordeste 22 Nordeste 0 -- -- 60
2017-08-09 09:00:00 14 8 Nordeste 18 Norte 0 -- -- 64
2017-08-09 08:00:00 12.6 2 Norte 10 Nordeste 0 -- -- 67
2017-08-09 07:00:00 12.1 0 Calma 4 Nordeste 0 -- -- 68
2017-08-09 06:00:00 12.3 0 Calma 5 Sur 0 -- -- 67
2017-08-09 05:00:00 12.7 0 Calma 9 Este 0 -- -- 65
2017-08-09 04:00:00 13.2 3 Nordeste 10 Este 0 -- -- 65
2017-08-09 03:00:00 13.6 2 Sudeste 14 Nordeste 0 -- -- 64
2017-08-09 02:00:00 14.2 3 Este 12 Este 0 -- -- 61
2017-08-09 01:00:00 15 5 Este 17 Este 0 -- -- 58
2017-08-09 00:00:00 15.9 5 Este 13 Este 0 -- -- 53
2017-08-08 23:00:00 16.7 2 Nordeste 24 Nordeste 0 -- -- 51
2017-08-08 22:00:00 17.7 12 Nordeste 25 Nordeste 0 -- -- 51
2017-08-08 21:00:00 19.7 14 Nordeste 31 Nordeste 0 -- -- 42
2017-08-08 20:00:00 21.4 14 Nordeste 38 Nordeste 0 -- -- 38
2017-08-08 19:00:00 23.7 15 Nordeste 36 Nordeste 0 -- -- 32
2017-08-08 18:00:00 24.9 12 Nordeste 31 Nordeste 0 -- -- 29
2017-08-08 17:00:00 25.8 13 Nordeste 33 Nordeste 0 -- -- 29
2017-08-08 16:00:00 25.5 9 Oeste 21 Noroeste 0 -- -- 28
2017-08-08 15:00:00 24.9 7 Norte 24 Oeste 0 -- -- 29
2017-08-08 14:00:00 23.4 6 Noroeste 30 Nordeste 0 -- -- 35
2017-08-08 13:00:00 21.5 9 Noroeste 24 Norte 0 -- -- 42
2017-08-08 12:00:00 19.7 5 Norte 20 Nordeste 0 -- -- 50
2017-08-08 11:00:00 18.6 10 Norte 23 Norte 0 -- -- 55
2017-08-08 10:00:00 17.5 5 Norte 19 Nordeste 0 -- -- 63
2017-08-08 09:00:00 17.1 5 Nordeste 17 Este 0 -- -- 66
2017-08-08 08:00:00 16.7 5 Norte 13 Este 0 -- -- 69
2017-08-08 07:00:00 16.9 4 Este 12 Nordeste 0 -- -- 72
2017-08-08 06:00:00 16.8 3 Noroeste 6 Noroeste 0 -- -- 76
2017-08-08 05:00:00 17 2 Norte 20 Norte 0 -- -- 77
2017-08-08 04:00:00 17.6 10 Nordeste 22 Nordeste 0 -- -- 75
2017-08-08 03:00:00 18.8 12 Nordeste 26 Norte 0 -- -- 71
2017-08-08 02:00:00 22.6 11 Nordeste 26 Norte 0 -- -- 59
2017-08-08 01:00:00 27.3 3 Norte 20 Oeste 0 -- -- 17
2017-08-08 00:00:00 28.4 8 Sudoeste 21 Oeste 0 -- -- 15
2017-08-07 23:00:00 29 5 Sudoeste 16 Sudoeste 0 -- -- 16
2017-08-07 22:00:00 30.6 8 Sudoeste 30 Sudoeste 0 -- -- 15
2017-08-07 21:00:00 32.5 20 Sudoeste 41 Oeste 0 -- -- 13
2017-08-07 20:00:00 33.9 20 Sudoeste 45 Sudoeste 0 -- -- 11
2017-08-07 19:00:00 35.5 23 Oeste 45 Sudoeste 0 -- -- 10
2017-08-07 18:00:00 34.9 20 Oeste 48 Sudoeste 0 -- -- 12
2017-08-07 17:00:00 35.5 22 Oeste 50 Sudoeste 0 -- -- 12
2017-08-07 16:00:00 35.5 20 Oeste 42 Sudoeste 0 -- -- 13
2017-08-07 15:00:00 34.6 17 Oeste 37 Sudoeste 0 -- -- 14
2017-08-07 14:00:00 33.8 19 Sudoeste 33 Sudoeste 0 -- -- 15
2017-08-07 13:00:00 31.9 8 Sudoeste 24 Oeste 0 -- -- 23
2017-08-07 12:00:00 29.7 5 Oeste 17 Sudeste 0 -- -- 39
2017-08-07 11:00:00 27.9 5 Sur 22 Sur 0 -- -- 44
2017-08-07 10:00:00 25.7 4 Noroeste 24 Sur 0 -- -- 55
2017-08-07 09:00:00 22.6 4 Norte 12 Nordeste 0 -- -- 68
2017-08-07 08:00:00 20.7 3 Este 11 Nordeste 0 -- -- 75
2017-08-07 07:00:00 18.9 4 Nordeste 9 Nordeste 0 -- -- 77
2017-08-07 06:00:00 18.5 3 Este 11 Este 0 -- -- 68
2017-08-07 05:00:00 19.2 5 Este 15 Nordeste 0 -- -- 64
2017-08-07 04:00:00 19.9 5 Nordeste 13 Nordeste 0 -- -- 61
2017-08-07 03:00:00 20.6 4 Nordeste 18 Nordeste 0 -- -- 58
2017-08-07 02:00:00 21.5 7 Nordeste 22 Nordeste 0 -- -- 55
2017-08-07 01:00:00 22.1 10 Nordeste 22 Nordeste 0 -- -- 52
2017-08-07 00:00:00 22.7 7 Nordeste 15 Nordeste 0 -- -- 50
2017-08-06 23:00:00 22.7 4 Norte 18 Nordeste 0 -- -- 50
2017-08-06 22:00:00 23.6 5 Este 29 Nordeste 0 -- -- 47
2017-08-06 21:00:00 24.7 13 Nordeste 34 Norte 0 -- -- 43
2017-08-06 20:00:00 26.2 19 Nordeste 35 Nordeste 0 -- -- 39
2017-08-06 19:00:00 27.2 17 Nordeste 40 Norte 0 -- -- 37
2017-08-06 18:00:00 27.5 13 Nordeste 35 Nordeste 0 -- -- 37
2017-08-06 17:00:00 27 13 Nordeste 32 Nordeste 0 -- -- 37
2017-08-06 16:00:00 27 13 Nordeste 29 Nordeste 0 -- -- 38
2017-08-06 15:00:00 25.3 15 Nordeste 29 Nordeste 0 -- -- 40
2017-08-06 14:00:00 24.3 13 Nordeste 26 Norte 0 -- -- 43
2017-08-06 13:00:00 23.6 12 Nordeste 27 Nordeste 0 -- -- 44
2017-08-06 12:00:00 22.1 11 Nordeste 26 Nordeste 0 -- -- 49
2017-08-06 11:00:00 20.4 11 Nordeste 23 Nordeste 0 -- -- 54
2017-08-06 10:00:00 18.7 9 Nordeste 22 Este 0 -- -- 63
2017-08-06 09:00:00 16.3 7 Nordeste 19 Nordeste 0 -- -- 75
2017-08-06 08:00:00 15.4 6 Nordeste 18 Nordeste 0 -- -- 78
2017-08-06 07:00:00 15.3 5 Nordeste 13 Este 0 -- -- 77
2017-08-06 06:00:00 15.8 6 Nordeste 18 Nordeste 0 -- -- 75
2017-08-06 05:00:00 16.4 5 Nordeste 18 Nordeste 0 -- -- 72
2017-08-06 04:00:00 16.6 6 Nordeste 17 Nordeste 0 -- -- 72
2017-08-06 03:00:00 17 8 Nordeste 17 Nordeste 0 -- -- 71
2017-08-06 02:00:00 17.5 6 Nordeste 20 Nordeste 0 -- -- 71
2017-08-06 01:00:00 18 7 Nordeste 27 Nordeste 0 -- -- 69
2017-08-06 00:00:00 18.8 8 Nordeste 21 Este 0 -- -- 66
2017-08-05 23:00:00 20 4 Este 23 Nordeste 0 -- -- 64
2017-08-05 22:00:00 21.6 12 Nordeste 32 Nordeste 0 -- -- 60
2017-08-05 21:00:00 24.4 14 Nordeste 32 Nordeste 0 -- -- 53
2017-08-05 20:00:00 28 13 Nordeste 33 Nordeste 0 -- -- 45
2017-08-05 19:00:00 30.2 13 Nordeste 32 Este 0 -- -- 42
2017-08-05 18:00:00 31.1 17 Nordeste 33 Nordeste 0 -- -- 40
2017-08-05 17:00:00 30.8 17 Nordeste 30 Nordeste 0 -- -- 41
2017-08-05 16:00:00 29.7 14 Nordeste 29 Nordeste 0 -- -- 45
2017-08-05 15:00:00 29.6 12 Nordeste 33 Norte 0 -- -- 46
2017-08-05 14:00:00 31.2 15 Nordeste 33 Nordeste 0 -- -- 40
2017-08-05 13:00:00 30.9 16 Nordeste 26 Norte 0 -- -- 40
2017-08-05 12:00:00 30.9 8 Nordeste 21 Nordeste 0 -- -- 38
2017-08-05 11:00:00 29.7 7 Nordeste 14 Nordeste 0 -- -- 39
2017-08-05 10:00:00 27.8 5 Nordeste 14 Nordeste 0 -- -- 46
2017-08-05 09:00:00 23.7 3 Nordeste 9 Norte 0 -- -- 58
2017-08-05 08:00:00 20.9 3 Este 6 Sudeste 0 -- -- 65
2017-08-05 07:00:00 20.4 2 Norte 7 Nordeste 0 -- -- 62
2017-08-05 06:00:00 21.3 0 Calma 5 Norte 0 -- -- 60
2017-08-05 05:00:00 22.1 4 Nordeste 8 Nordeste 0 -- -- 58
2017-08-05 04:00:00 23 0 Calma 3 Nordeste 0 -- -- 56
2017-08-05 03:00:00 23.9 0 Calma 6 Nordeste 0 -- -- 54
2017-08-05 02:00:00 24.9 0 Calma 4 Nordeste 0 -- -- 51
2017-08-05 01:00:00 25.8 0 Calma 5 Nordeste 0 -- -- 47
2017-08-05 00:00:00 27.1 3 Nordeste 5 Norte 0 -- -- 43
2017-08-04 23:00:00 28.4 3 Nordeste 14 Nordeste 0 -- -- 40
2017-08-04 22:00:00 29.5 9 Nordeste 23 Nordeste 0 -- -- 37
2017-08-04 21:00:00 31.4 12 Nordeste 28 Nordeste 0 -- -- 33
2017-08-04 20:00:00 33.5 12 Nordeste 28 Norte 0 -- -- 29
2017-08-04 19:00:00 35.3 13 Nordeste 28 Nordeste 0 -- -- 26
2017-08-04 18:00:00 36.4 10 Nordeste 27 Norte 0 -- -- 25
2017-08-04 17:00:00 36.9 5 Noroeste 23 Noroeste 0 -- -- 21
2017-08-04 16:00:00 35.4 12 Oeste 26 Oeste 0 -- -- 23
2017-08-04 15:00:00 34.8 11 Oeste 24 Oeste 0 -- -- 24
2017-08-04 14:00:00 33.8 6 Norte 22 Norte 0 -- -- 26
2017-08-04 13:00:00 32.3 8 Oeste 27 Norte 0 -- -- 29
2017-08-04 12:00:00 30.7 10 Oeste 21 Sudoeste 0 -- -- 33
2017-08-04 11:00:00 28.4 7 Sudoeste 18 Oeste 0 -- -- 36
2017-08-04 10:00:00 25.6 4 Sur 10 Sudoeste 0 -- -- 40
2017-08-04 09:00:00 20.1 0 Calma 4 Nordeste 0 -- -- 56
2017-08-04 08:00:00 17.5 2 Nordeste 5 Sudeste 0 -- -- 61
2017-08-04 07:00:00 17.3 2 Nordeste 5 Nordeste 0 -- -- 61
2017-08-04 06:00:00 18.1 0 Calma 6 Norte 0 -- -- 58
2017-08-04 05:00:00 19 3 Este 7 Este 0 -- -- 55
2017-08-04 04:00:00 20.5 0 Calma 5 Este 0 -- -- 49
2017-08-04 03:00:00 22.6 0 Calma 5 Oeste 0 -- -- 44
2017-08-04 02:00:00 23.6 0 Calma 13 Este 0 -- -- 39
2017-08-04 01:00:00 23.4 3 Nordeste 10 Nordeste 0 -- -- 39
2017-08-04 00:00:00 25.4 0 Calma 6 Este 0 -- -- 35
2017-08-03 23:00:00 27.9 3 Nordeste 10 Sudeste 0 -- -- 31
2017-08-03 22:00:00 30.7 3 Sudeste 15 Nordeste 0 -- -- 26
2017-08-03 21:00:00 33.6 6 Nordeste 14 Nordeste 0 -- -- 22
2017-08-03 20:00:00 36.6 4 Norte 18 Norte 0 -- -- 15
2017-08-03 19:00:00 37.6 6 Nordeste 13 Nordeste 0 -- -- 16
2017-08-03 18:00:00 37.2 3 Sur 21 Oeste 0 -- -- 17
2017-08-03 17:00:00 36.1 6 Oeste 15 Sudoeste 0 -- -- 18
2017-08-03 16:00:00 35 5 Noroeste 18 Oeste 0 -- -- 18
2017-08-03 15:00:00 34.5 6 Sudoeste 15 Sudoeste 0 -- -- 20
2017-08-03 14:00:00 33.7 6 Sudoeste 17 Oeste 0 -- -- 22
2017-08-03 13:00:00 32 7 Oeste 20 Sudoeste 0 -- -- 23
2017-08-03 12:00:00 30.2 8 Sudoeste 16 Sudoeste 0 -- -- 29
2017-08-03 11:00:00 27.7 3 Sudoeste 8 Sudoeste 0 -- -- 42
2017-08-03 10:00:00 23.9 4 Oeste 9 Noroeste 0 -- -- 53
2017-08-03 09:00:00 20.1 4 Sur 8 Sur 0 -- -- 66
2017-08-03 08:00:00 17.5 0 Calma 5 Nordeste 0 -- -- 74
2017-08-03 07:00:00 17.4 0 Calma 5 Este 0 -- -- 72
2017-08-03 06:00:00 19 2 Este 8 Oeste 0 -- -- 67
2017-08-03 05:00:00 21.4 3 Oeste 9 Nordeste 0 -- -- 62
2017-08-03 04:00:00 22.5 0 Calma 10 Sudeste 0 -- -- 57
2017-08-03 03:00:00 23.7 4 Sur 13 Sudeste 0 -- -- 53
2017-08-03 02:00:00 23.8 4 Nordeste 11 Nordeste 0 -- -- 54
2017-08-03 01:00:00 24.6 2 Norte 18 Sudeste 0 -- -- 53
2017-08-03 00:00:00 25.6 8 Sudeste 19 Sudeste 0 -- -- 49
2017-08-02 23:00:00 26.2 3 Noroeste 18 Sur 0 -- -- 50
2017-08-02 22:00:00 28 6 Sur 17 Sur 0 -- -- 42
2017-08-02 21:00:00 29.3 3 Este 17 Sur 0 -- -- 40
2017-08-02 20:00:00 30.5 10 Sudeste 31 Sudeste 0 -- -- 37
2017-08-02 19:00:00 31.9 7 Sudoeste 30 Sudeste 0 -- -- 33
2017-08-02 18:00:00 30.9 9 Sur 29 Sudeste 0 -- -- 35
2017-08-02 17:00:00 30.7 8 Sudeste 24 Oeste 0 -- -- 34
2017-08-02 16:00:00 27.2 4 Sur 21 Oeste 0 -- -- 43
2017-08-02 15:00:00 23.8 6 Oeste 32 Sudeste 0 -- -- 47
2017-08-02 14:00:00 22.7 10 Nordeste 28 Sudeste 0 -- -- 52
2017-08-02 13:00:00 20.8 6 Nordeste 30 Este 0 -- -- 57
2017-08-02 12:00:00 20.5 5 Noroeste 37 Sudeste 0.6 -- -- 63
2017-08-02 11:00:00 25.1 8 Sudeste 24 Sur 0 -- -- 41
2017-08-02 10:00:00 25.6 4 Norte 14 Sudeste 0 -- -- 42
2017-08-02 09:00:00 23.8 3 Norte 11 Norte 0 -- -- 47
2017-08-02 08:00:00 21.6 2 Este 20 Sudoeste 0.2 -- -- 63
2017-08-02 07:00:00 21.9 3 Este 12 Sudeste 0 -- -- 59
2017-08-02 06:00:00 21.3 3 Este 7 Norte 0 -- -- 59
2017-08-02 05:00:00 23.4 4 Nordeste 17 Nordeste 0 -- -- 53
2017-08-02 04:00:00 24.1 3 Nordeste 18 Sudoeste 0 -- -- 51
2017-08-02 03:00:00 24.3 5 Sudoeste 16 Sudoeste 0 -- -- 50
2017-08-02 02:00:00 24.6 5 Sudeste 23 Sudeste 0 -- -- 48
2017-08-02 01:00:00 25 6 Nordeste 19 Nordeste 0 -- -- 46
2017-08-02 00:00:00 23.1 4 Nordeste 7 Nordeste 0 -- -- 54
2017-08-01 23:00:00 25.3 3 Este 14 Norte 0 -- -- 50
2017-08-01 22:00:00 26.7 7 Nordeste 21 Nordeste 0 -- -- 45
2017-08-01 21:00:00 28.7 6 Nordeste 20 Nordeste 0 -- -- 39
2017-08-01 20:00:00 30.5 11 Nordeste 26 Nordeste 0 -- -- 34
2017-08-01 19:00:00 31.7 13 Nordeste 28 Este 0 -- -- 31
2017-08-01 18:00:00 31.6 13 Nordeste 35 Este 0 -- -- 32
2017-08-01 17:00:00 30.9 14 Nordeste 36 Nordeste 0 -- -- 31
2017-08-01 16:00:00 31 17 Nordeste 37 Nordeste 0 -- -- 31
2017-08-01 15:00:00 32.6 6 Nordeste 27 Nordeste 0 -- -- 22
2017-08-01 14:00:00 31 3 Noroeste 16 Nordeste 0 -- -- 27
2017-08-01 13:00:00 28.9 6 Nordeste 15 Norte 0 -- -- 34
2017-08-01 12:00:00 25.6 4 Oeste 15 Sudoeste 0 -- -- 49
2017-08-01 11:00:00 23.6 5 Nordeste 14 Sudeste 0 -- -- 57
2017-08-01 10:00:00 21.5 3 Este 10 Nordeste 0 -- -- 63
2017-08-01 09:00:00 19.4 4 Nordeste 13 Este 0 -- -- 70
2017-08-01 08:00:00 17.9 6 Nordeste 14 Norte 0 -- -- 75
2017-08-01 07:00:00 17.4 3 Nordeste 10 Nordeste 0 -- -- 76
2017-08-01 06:00:00 17.7 3 Nordeste 10 Nordeste 0 -- -- 75
2017-08-01 05:00:00 18.2 3 Norte 14 Norte 0 -- -- 73
2017-08-01 04:00:00 18.6 6 Nordeste 13 Norte 0 -- -- 73
2017-08-01 03:00:00 19.4 6 Este 17 Norte 0 -- -- 70
2017-08-01 02:00:00 20.6 7 Nordeste 19 Nordeste 0 -- -- 66
2017-08-01 01:00:00 22 6 Nordeste 18 Nordeste 0 -- -- 62
2017-08-01 00:00:00 24.5 8 Nordeste 22 Nordeste 0 -- -- 55
2017-07-31 23:00:00 26.3 4 Nordeste 11 Nordeste 0 -- -- 21
2017-07-31 22:00:00 29 2 Este 9 Sur 0 -- -- 18
2017-07-31 21:00:00 33.2 5 Sudoeste 23 Oeste 0 -- -- 14
2017-07-31 20:00:00 35.4 15 Oeste 35 Oeste 0 -- -- 12
2017-07-31 19:00:00 36.6 14 Oeste 39 Sudoeste 0 -- -- 11
2017-07-31 18:00:00 37.1 12 Oeste 27 Sudoeste 0 -- -- 12
2017-07-31 17:00:00 36.5 17 Oeste 34 Oeste 0 -- -- 13
2017-07-31 16:00:00 36.5 12 Sudoeste 36 Oeste 0 -- -- 14
2017-07-31 15:00:00 33.2 10 Nordeste 27 Nordeste 0 -- -- 29
2017-07-31 14:00:00 31.2 13 Nordeste 30 Nordeste 0 -- -- 34
2017-07-31 13:00:00 29.9 14 Nordeste 28 Nordeste 0 -- -- 37
2017-07-31 12:00:00 29.7 10 Nordeste 20 Nordeste 0 -- -- 37
2017-07-31 11:00:00 27.2 8 Nordeste 17 Norte 0 -- -- 43
2017-07-31 10:00:00 23.5 5 Nordeste 15 Nordeste 0 -- -- 53
2017-07-31 09:00:00 19.6 8 Nordeste 19 Norte 0 -- -- 65
2017-07-31 08:00:00 17.7 8 Nordeste 17 Nordeste 0 -- -- 72
2017-07-31 07:00:00 17.6 5 Nordeste 14 Nordeste 0 -- -- 72
2017-07-31 06:00:00 17.9 5 Nordeste 19 Nordeste 0 -- -- 71
2017-07-31 05:00:00 18.4 6 Nordeste 21 Norte 0 -- -- 69
2017-07-31 04:00:00 19.2 12 Nordeste 22 Norte 0 -- -- 68
2017-07-31 03:00:00 21.1 8 Nordeste 17 Nordeste 0 -- -- 62
2017-07-31 02:00:00 22.4 8 Nordeste 16 Nordeste 0 -- -- 59
2017-07-31 01:00:00 24 7 Nordeste 22 Nordeste 0 -- -- 53
2017-07-31 00:00:00 26.3 12 Nordeste 26 Este 0 -- -- 45
2017-07-30 23:00:00 26.5 3 Este 8 Nordeste 0 -- -- 24
2017-07-30 22:00:00 30.8 3 Este 10 Noroeste 0 -- -- 19
2017-07-30 21:00:00 34 4 Oeste 26 Sudoeste 0 -- -- 17
2017-07-30 20:00:00 35.2 8 Oeste 30 Sur 0 -- -- 16
2017-07-30 19:00:00 36.2 15 Oeste 34 Oeste 0 -- -- 15
2017-07-30 18:00:00 35.5 15 Sudoeste 48 Oeste 0 -- -- 15
2017-07-30 17:00:00 36.1 17 Sudoeste 41 Sudoeste 0 -- -- 14
2017-07-30 16:00:00 36.2 15 Oeste 44 Sudoeste 0 -- -- 13
2017-07-30 15:00:00 35.6 21 Oeste 42 Sudoeste 0 -- -- 14
2017-07-30 14:00:00 34.9 7 Oeste 16 Sudoeste 0 -- -- 18
2017-07-30 13:00:00 33.1 4 Oeste 16 Oeste 0 -- -- 22
2017-07-30 12:00:00 31.4 4 Sudoeste 15 Oeste 0 -- -- 24
2017-07-30 11:00:00 28.5 3 Oeste 8 Oeste 0 -- -- 28
2017-07-30 10:00:00 25 4 Oeste 10 Sur 0 -- -- 34
2017-07-30 09:00:00 19.8 0 Calma 6 Sudeste 0 -- -- 46
2017-07-30 08:00:00 16.8 2 Este 5 Sudeste 0 -- -- 52
2017-07-30 07:00:00 16.3 3 Este 7 Nordeste 0 -- -- 53
2017-07-30 06:00:00 16.9 3 Nordeste 10 Nordeste 0 -- -- 52
2017-07-30 05:00:00 17.6 2 Este 7 Nordeste 0 -- -- 50
2017-07-30 04:00:00 18.4 0 Calma 5 Este 0 -- -- 48
2017-07-30 03:00:00 19.5 0 Calma 5 Este 0 -- -- 45
2017-07-30 02:00:00 20.7 2 Este 8 Nordeste 0 -- -- 43
2017-07-30 01:00:00 22.4 2 Este 9 Este 0 -- -- 40
2017-07-30 00:00:00 24.6 3 Este 8 Este 0 -- -- 35
2017-07-29 23:00:00 27.2 0 Calma 6 Este 0 -- -- 29
2017-07-29 22:00:00 29.8 3 Nordeste 33 Oeste 0 -- -- 25
2017-07-29 21:00:00 32.8 2 Nordeste 35 Sudoeste 0 -- -- 21
2017-07-29 20:00:00 35.8 12 Oeste 25 Sudoeste 0 -- -- 14
2017-07-29 19:00:00 36.2 13 Oeste 26 Sudoeste 0 -- -- 14
2017-07-29 18:00:00 37.2 12 Oeste 28 Sudoeste 0 -- -- 14
2017-07-29 17:00:00 36.5 8 Oeste 28 Sudoeste 0 -- -- 14
2017-07-29 16:00:00 36.2 10 Oeste 32 Oeste 0 -- -- 14
2017-07-29 15:00:00 35.5 13 Oeste 34 Sudoeste 0 -- -- 16
2017-07-29 14:00:00 34.8 14 Oeste 30 Sudoeste 0 -- -- 16
2017-07-29 13:00:00 33.2 10 Oeste 29 Noroeste 0 -- -- 22
2017-07-29 12:00:00 30.9 4 Noroeste 13 Sudoeste 0 -- -- 28
2017-07-29 11:00:00 28.1 2 Norte 6 Noroeste 0 -- -- 32
2017-07-29 10:00:00 23.9 0 Calma 5 Oeste 0 -- -- 30
2017-07-29 09:00:00 19.7 0 Calma 4 Norte 0 -- -- 36
2017-07-29 08:00:00 16.7 0 Calma 5 Sudeste 0 -- -- 42
2017-07-29 07:00:00 16.3 3 Nordeste 6 Nordeste 0 -- -- 42
2017-07-29 06:00:00 17.7 2 Este 6 Nordeste 0 -- -- 39
2017-07-29 05:00:00 19.3 0 Calma 6 Nordeste 0 -- -- 37
2017-07-29 04:00:00 21.1 0 Calma 5 Nordeste 0 -- -- 35
2017-07-29 03:00:00 23 2 Norte 8 Este 0 -- -- 32
2017-07-29 02:00:00 24.2 3 Norte 10 Noroeste 0 -- -- 35
2017-07-29 01:00:00 25 3 Nordeste 16 Nordeste 0 -- -- 44
2017-07-29 00:00:00 25.5 7 Nordeste 12 Nordeste 0 -- -- 39
2017-07-28 23:00:00 26.8 4 Este 8 Nordeste 0 -- -- 38
2017-07-28 22:00:00 28.9 0 Calma 15 Nordeste 0 -- -- 35
2017-07-28 21:00:00 31.1 5 Este 24 Este 0 -- -- 31
2017-07-28 20:00:00 33 8 Este 21 Sudeste 0 -- -- 29
2017-07-28 19:00:00 34.5 11 Este 27 Este 0 -- -- 26
2017-07-28 18:00:00 34.2 10 Nordeste 26 Nordeste 0 -- -- 25
2017-07-28 17:00:00 35.1 8 Este 28 Nordeste 0 -- -- 25
2017-07-28 16:00:00 35.5 6 Nordeste 21 Noroeste 0 -- -- 23
2017-07-28 15:00:00 34.2 8 Oeste 22 Nordeste 0 -- -- 22
2017-07-28 14:00:00 32.5 8 Este 19 Nordeste 0 -- -- 26
2017-07-28 13:00:00 30.4 10 Oeste 21 Sudoeste 0 -- -- 30
2017-07-28 12:00:00 28.8 10 Sudoeste 21 Sudoeste 0 -- -- 33
2017-07-28 11:00:00 26.5 3 Sudoeste 9 Sudoeste 0 -- -- 42
2017-07-28 10:00:00 24 3 Oeste 6 Sudoeste 0 -- -- 51
2017-07-28 09:00:00 20.7 2 Norte 6 Norte 0 -- -- 59
2017-07-28 08:00:00 18.6 0 Calma 5 Sudeste 0 -- -- 67
2017-07-28 07:00:00 17.5 0 Calma 5 Nordeste 0 -- -- 67
2017-07-28 06:00:00 18.1 0 Calma 6 Nordeste 0 -- -- 62
2017-07-28 05:00:00 19 0 Calma 5 Nordeste 0 -- -- 59
2017-07-28 04:00:00 20.4 3 Nordeste 6 Nordeste 0 -- -- 55
2017-07-28 03:00:00 21.9 2 Norte 8 Este 0 -- -- 51
2017-07-28 02:00:00 22.7 4 Nordeste 10 Nordeste 0 -- -- 49
2017-07-28 01:00:00 22.4 3 Nordeste 8 Nordeste 0 -- -- 43
2017-07-28 00:00:00 23.6 3 Este 5 Sudeste 0 -- -- 38
2017-07-27 23:00:00 25.8 0 Calma 7 Nordeste 0 -- -- 34
2017-07-27 22:00:00 28.4 0 Calma 18 Norte 0 -- -- 30
2017-07-27 21:00:00 30.4 9 Nordeste 23 Norte 0 -- -- 27
2017-07-27 20:00:00 32.6 12 Nordeste 27 Norte 0 -- -- 24
2017-07-27 19:00:00 36.9 8 Noroeste 19 Sudoeste 0 -- -- 16
2017-07-27 18:00:00 35.9 10 Oeste 24 Oeste 0 -- -- 17
2017-07-27 17:00:00 36 10 Oeste 26 Oeste 0 -- -- 18
2017-07-27 16:00:00 35.7 8 Norte 26 Noroeste 0 -- -- 18
2017-07-27 15:00:00 34.4 7 Oeste 28 Noroeste 0 -- -- 20
2017-07-27 14:00:00 32.5 12 Oeste 30 Oeste 0 -- -- 22
2017-07-27 13:00:00 31.8 6 Sur 22 Oeste 0 -- -- 24
2017-07-27 12:00:00 29.7 5 Sudoeste 11 Sur 0 -- -- 28
2017-07-27 11:00:00 26 0 Calma 9 Oeste 0 -- -- 40
2017-07-27 10:00:00 22.8 2 Sudoeste 9 Oeste 0 -- -- 49
2017-07-27 09:00:00 18.7 2 Oeste 8 Oeste 0 -- -- 61
2017-07-27 08:00:00 14.6 0 Calma 5 Nordeste 0 -- -- 65
2017-07-27 07:00:00 13.6 3 Nordeste 6 Nordeste 0 -- -- 66
2017-07-27 06:00:00 14.1 2 Nordeste 5 Nordeste 0 -- -- 66
2017-07-27 05:00:00 14.8 3 Nordeste 9 Nordeste 0 -- -- 65
2017-07-27 04:00:00 15.9 0 Calma 6 Nordeste 0 -- -- 64
2017-07-27 03:00:00 16.9 0 Calma 8 Norte 0 -- -- 62
2017-07-27 02:00:00 18.1 3 Nordeste 6 Nordeste 0 -- -- 60
2017-07-27 01:00:00 19.8 0 Calma 5 Nordeste 0 -- -- 55
2017-07-27 00:00:00 21.3 0 Calma 7 Norte 0 -- -- 52
2017-07-26 23:00:00 22.6 3 Sudeste 15 Nordeste 0 -- -- 49
2017-07-26 22:00:00 23.8 5 Nordeste 21 Nordeste 0 -- -- 46
2017-07-26 21:00:00 25.7 10 Nordeste 22 Norte 0 -- -- 41
2017-07-26 20:00:00 27.8 10 Nordeste 32 Nordeste 0 -- -- 35
2017-07-26 19:00:00 29.4 10 Nordeste 31 Nordeste 0 -- -- 32
2017-07-26 18:00:00 30.4 10 Nordeste 27 Nordeste 0 -- -- 29
2017-07-26 17:00:00 30.1 10 Nordeste 28 Norte 0 -- -- 27
2017-07-26 16:00:00 28.9 12 Oeste 30 Noroeste 0 -- -- 30
2017-07-26 15:00:00 27.9 8 Noroeste 27 Oeste 0 -- -- 30
2017-07-26 14:00:00 26.1 11 Oeste 33 Noroeste 0 -- -- 33
2017-07-26 13:00:00 24.6 7 Oeste 24 Oeste 0 -- -- 35
2017-07-26 12:00:00 22.5 7 Noroeste 17 Noroeste 0 -- -- 40
2017-07-26 11:00:00 19.9 8 Oeste 19 Oeste 0 -- -- 44
2017-07-26 10:00:00 17.5 6 Sudoeste 13 Sudoeste 0 -- -- 51
2017-07-26 09:00:00 13.2 0 Calma 6 Oeste 0 -- -- 71
2017-07-26 08:00:00 10.6 0 Calma 6 Nordeste 0 -- -- 80
2017-07-26 07:00:00 9.7 3 Este 7 Nordeste 0 -- -- 81
2017-07-26 06:00:00 10.3 0 Calma 6 Nordeste 0 -- -- 79
2017-07-26 05:00:00 10.9 2 Este 9 Nordeste 0 -- -- 78
2017-07-26 04:00:00 12 0 Calma 6 Nordeste 0 -- -- 74
2017-07-26 03:00:00 12.8 0 Calma 6 Nordeste 0 -- -- 71
2017-07-26 02:00:00 13.8 0 Calma 8 Nordeste 0 -- -- 67
2017-07-26 01:00:00 15 0 Calma 7 Norte 0 -- -- 63
2017-07-26 00:00:00 16.4 2 Noroeste 14 Norte 0 -- -- 58
2017-07-25 23:00:00 17.3 4 Nordeste 20 Norte 0 -- -- 55
2017-07-25 22:00:00 18.6 7 Nordeste 25 Nordeste 0 -- -- 51
2017-07-25 21:00:00 19.8 10 Nordeste 31 Nordeste 0 -- -- 46
2017-07-25 20:00:00 21.2 11 Nordeste 35 Norte 0 -- -- 43
2017-07-25 19:00:00 24.5 14 Nordeste 32 Nordeste 0 -- -- 36
2017-07-25 18:00:00 25.5 12 Nordeste 30 Nordeste 0 -- -- 34
2017-07-25 17:00:00 24.9 12 Nordeste 27 Nordeste 0 -- -- 35
2017-07-25 16:00:00 25.4 11 Norte 27 Norte 0 -- -- 33
2017-07-25 15:00:00 24.6 9 Norte 31 Norte 0 -- -- 33
2017-07-25 14:00:00 23.2 8 Nordeste 27 Nordeste 0 -- -- 35
2017-07-25 13:00:00 22.2 5 Norte 28 Nordeste 0 -- -- 38
2017-07-25 12:00:00 20.4 10 Norte 24 Noroeste 0 -- -- 45
2017-07-25 11:00:00 19 10 Norte 27 Norte 0 -- -- 49
2017-07-25 10:00:00 17.7 10 Norte 28 Nordeste 0 -- -- 54
2017-07-25 09:00:00 15.5 8 Norte 17 Nordeste 0 -- -- 62
2017-07-25 08:00:00 12.4 0 Calma 4 Este 0 -- -- 75
2017-07-25 07:00:00 11.8 0 Calma 6 Nordeste 0 -- -- 76
2017-07-25 06:00:00 12.9 3 Nordeste 7 Norte 0 -- -- 73
2017-07-25 05:00:00 14.5 0 Calma 10 Nordeste 0 -- -- 68
2017-07-25 04:00:00 15.4 6 Noroeste 17 Noroeste 0 -- -- 65
2017-07-25 03:00:00 15.4 4 Noroeste 13 Norte 0 -- -- 68
2017-07-25 02:00:00 15.6 4 Noroeste 15 Nordeste 0 -- -- 71
2017-07-25 01:00:00 16.2 4 Norte 16 Nordeste 0 -- -- 68
2017-07-25 00:00:00 16.9 8 Nordeste 21 Noroeste 0 -- -- 65
2017-07-24 23:00:00 18.1 9 Norte 31 Nordeste 0 -- -- 60
2017-07-24 22:00:00 19.3 10 Nordeste 34 Nordeste 0 -- -- 56
2017-07-24 21:00:00 20.5 19 Nordeste 41 Nordeste 0 -- -- 54
2017-07-24 20:00:00 23.4 14 Nordeste 39 Nordeste 0 -- -- 45
2017-07-24 19:00:00 25.7 18 Nordeste 38 Norte 0 -- -- 40
2017-07-24 18:00:00 26.9 13 Nordeste 30 Nordeste 0 -- -- 35
2017-07-24 17:00:00 27 13 Nordeste 30 Nordeste 0 -- -- 34
2017-07-24 16:00:00 26.9 11 Nordeste 32 Nordeste 0 -- -- 36
2017-07-24 15:00:00 26.3 11 Norte 34 Nordeste 0 -- -- 38
2017-07-24 14:00:00 24.6 14 Norte 30 Norte 0 -- -- 42
2017-07-24 13:00:00 24.5 8 Norte 26 Este 0 -- -- 42
2017-07-24 12:00:00 23.4 10 Norte 26 Noroeste 0 -- -- 47
2017-07-24 11:00:00 21.1 9 Oeste 17 Noroeste 0 -- -- 56
2017-07-24 10:00:00 20.1 6 Noroeste 15 Noroeste 0 -- -- 60
2017-07-24 09:00:00 17.6 3 Oeste 7 Noroeste 0 -- -- 69
2017-07-24 08:00:00 14.7 0 Calma 5 Nordeste 0 -- -- 76
2017-07-24 07:00:00 13.9 2 Nordeste 8 Nordeste 0 -- -- 77
2017-07-24 06:00:00 14.5 2 Nordeste 6 Nordeste 0 -- -- 75
2017-07-24 05:00:00 15.7 0 Calma 4 Sudoeste 0 -- -- 71
2017-07-24 04:00:00 16.4 0 Calma 6 Norte 0 -- -- 68
2017-07-24 03:00:00 17.1 3 Nordeste 6 Norte 0 -- -- 64
2017-07-24 02:00:00 18 5 Nordeste 20 Este 0 -- -- 62
2017-07-24 01:00:00 19.2 5 Este 12 Sudeste 0 -- -- 57
2017-07-24 00:00:00 20.6 4 Sudoeste 13 Nordeste 0 -- -- 51
2017-07-23 23:00:00 22 9 Nordeste 21 Nordeste 0 -- -- 47
2017-07-23 22:00:00 24.2 7 Nordeste 20 Nordeste 0 -- -- 45
2017-07-23 21:00:00 25.7 9 Nordeste 25 Nordeste 0 -- -- 45
2017-07-23 20:00:00 27.7 10 Nordeste 27 Nordeste 0 -- -- 40
2017-07-23 19:00:00 29.4 11 Nordeste 23 Norte 0 -- -- 35
2017-07-23 18:00:00 29.5 5 Nordeste 26 Norte 0 -- -- 34
2017-07-23 17:00:00 28.2 9 Nordeste 28 Nordeste 0 -- -- 36
2017-07-23 16:00:00 26.7 12 Nordeste 31 Nordeste 0 -- -- 42
2017-07-23 15:00:00 26.1 14 Nordeste 31 Este 0 -- -- 43
2017-07-23 14:00:00 27.3 11 Nordeste 25 Este 0 -- -- 40
2017-07-23 13:00:00 25.9 10 Nordeste 24 Nordeste 0 -- -- 46
2017-07-23 12:00:00 24.3 8 Nordeste 17 Nordeste 0 -- -- 52
2017-07-23 11:00:00 21.8 5 Este 15 Norte 0 -- -- 58
2017-07-23 10:00:00 19.3 7 Nordeste 17 Este 0 -- -- 65
2017-07-23 09:00:00 17 6 Nordeste 18 Norte 0 -- -- 74
2017-07-23 08:00:00 15.6 5 Nordeste 12 Nordeste 0 -- -- 79
2017-07-23 07:00:00 14.9 2 Nordeste 10 Nordeste 0 -- -- 82
2017-07-23 06:00:00 15.3 3 Nordeste 10 Norte 0 -- -- 79
2017-07-23 05:00:00 15.7 4 Este 15 Este 0 -- -- 78
2017-07-23 04:00:00 16.5 5 Este 16 Nordeste 0 -- -- 75
2017-07-23 03:00:00 17.4 6 Este 16 Este 0 -- -- 70
2017-07-23 02:00:00 18.6 4 Este 20 Norte 0 -- -- 65
2017-07-23 01:00:00 20.3 7 Norte 22 Nordeste 0 -- -- 59
2017-07-23 00:00:00 23.1 12 Nordeste 24 Nordeste 0 -- -- 51
2017-07-22 23:00:00 24.8 0 Calma 5 Nordeste 0 -- -- 45
2017-07-22 22:00:00 26.7 2 Este 12 Nordeste 0 -- -- 39
2017-07-22 21:00:00 29 8 Nordeste 23 Nordeste 0 -- -- 35
2017-07-22 20:00:00 31.5 6 Norte 18 Nordeste 0 -- -- 34
2017-07-22 19:00:00 34.1 9 Oeste 22 Oeste 0 -- -- 14
2017-07-22 18:00:00 33.9 9 Oeste 32 Oeste 0 -- -- 15
2017-07-22 17:00:00 33.1 11 Oeste 32 Sudoeste 0 -- -- 14
2017-07-22 16:00:00 32.8 12 Sudoeste 28 Oeste 0 -- -- 17
2017-07-22 15:00:00 32.4 12 Sudoeste 31 Oeste 0 -- -- 17
2017-07-22 14:00:00 31 15 Oeste 33 Sudoeste 0 -- -- 19
2017-07-22 13:00:00 29.6 4 Noroeste 19 Oeste 0 -- -- 26
2017-07-22 12:00:00 27.7 4 Sudoeste 10 Sudoeste 0 -- -- 35
2017-07-22 11:00:00 23.7 3 Oeste 8 Oeste 0 -- -- 54
2017-07-22 10:00:00 20.3 3 Oeste 7 Oeste 0 -- -- 71
2017-07-22 09:00:00 18.6 0 Calma 3 Noroeste 0 -- -- 70
2017-07-22 08:00:00 16 0 Calma 3 Sur 0 -- -- 73
2017-07-22 07:00:00 15.4 0 Calma 2 Sudeste 0 -- -- 77
2017-07-22 06:00:00 16.5 2 Nordeste 6 Nordeste 0 -- -- 77
2017-07-22 05:00:00 17.4 2 Nordeste 11 Norte 0 -- -- 78
2017-07-22 04:00:00 18.1 6 Nordeste 11 Nordeste 0 -- -- 81
2017-07-22 03:00:00 18.6 4 Nordeste 12 Este 0 -- -- 81
2017-07-22 02:00:00 19.7 5 Nordeste 14 Nordeste 0 -- -- 77
2017-07-22 01:00:00 20.5 7 Nordeste 15 Nordeste 0 -- -- 70
2017-07-22 00:00:00 20.8 3 Este 7 Nordeste 0 -- -- 66